ウルムチ の空港の天気 - METARとTAF

ウルムチ地窩堡国際空港 ( ZWWW / URC ) - 中国 新疆ウイグル自治区ウルムチ市
飛行場実況気象(Metar)
観測時間07/19 11:00 CST (07/19 03:00 UTC)
風向・風速不定 1m/s
視程10km以上
天気現象
なし
気温34℃
湿度19%
気圧1007hPa
METARZWWW 190300Z VRB01MPS CAVOK 34/07 Q1007 NOSIG
過去の天気等 Google飛行場航空写真 Wunderground天気予報

過去48時間のMETAR

飛行場予報(TAF)
発表時間: 7/19 05:03 CST (7/18 21:03 UTC)
予報対象時間: 19日8時 CST ~ 20日8時 CST
風向・風速南 4m/s
視程10km以上
なし
19日10時 CST ~ 19日11時 CST に徐々に
風向・風速北 4m/s
19日18時 CST ~ 19日19時 CST に徐々に
風向・風速西南西 7m/s 瞬間風速 12m/s
視程10km以上
少しの積乱雲 雲底高度 1220m
19日23時 CST ~ 19日24時 CST に徐々に
風向・風速南 4m/s
視程10km以上
なし
TAF ZWWW 182103Z 1900/1924 18004MPS CAVOK TX36/1909Z TN26/1923Z
BECMG 1902/1903 36004MPS
BECMG 1910/1911 24007G12MPS 9999 FEW040CB
BECMG 1915/1916 17004MPS CAVOK